createdAt,value
2022-07-29T00:02:27.189Z,27.92
2022-07-29T00:04:54.467Z,27.08
2022-07-29T00:07:21.906Z,27.05
2022-07-29T00:09:51.662Z,27.45
2022-07-29T00:12:25.200Z,28.42
2022-07-29T00:14:57.422Z,28.75
2022-07-29T00:17:25.379Z,27.48
2022-07-29T00:19:52.703Z,28.42
2022-07-29T00:22:20.692Z,28.25
2022-07-29T00:24:50.213Z,27.83
2022-07-29T00:27:17.971Z,26.80
2022-07-29T00:29:45.163Z,27.05
2022-07-29T00:32:12.268Z,26.50
2022-07-29T00:34:57.722Z,25.45
2022-07-29T00:37:24.877Z,23.65
2022-07-29T00:39:52.150Z,23.58
2022-07-29T00:42:19.140Z,22.88
2022-07-29T00:44:46.280Z,23.52
2022-07-29T00:47:13.780Z,23.98
2022-07-29T00:49:42.161Z,23.05
2022-07-29T00:52:10.962Z,23.55
2022-07-29T00:54:44.709Z,23.80
2022-07-29T00:57:13.137Z,24.60
2022-07-29T00:59:40.736Z,23.98
2022-07-29T01:02:07.823Z,23.80
2022-07-29T01:04:35.315Z,23.67
2022-07-29T01:07:04.000Z,25.08
2022-07-29T01:09:34.349Z,24.75
2022-07-29T01:12:14.590Z,25.27
2022-07-29T01:14:42.703Z,25.67
2022-07-29T01:17:20.160Z,24.80
2022-07-29T01:19:57.191Z,25.88
2022-07-29T01:22:35.000Z,25.50
2022-07-29T01:25:35.872Z,25.80
2022-07-29T01:28:16.153Z,26.67
2022-07-29T01:30:47.615Z,24.40
2022-07-29T01:33:38.369Z,24.92
2022-07-29T01:36:12.170Z,25.77
2022-07-29T01:38:42.947Z,24.67
2022-07-29T01:41:17.528Z,25.10
2022-07-29T01:43:54.805Z,24.17
2022-07-29T01:46:39.443Z,24.08
2022-07-29T01:51:52.812Z,23.52
2022-07-29T01:54:31.785Z,24.23
2022-07-29T01:57:01.055Z,24.15
2022-07-29T01:59:30.233Z,23.95
2022-07-29T02:01:59.912Z,23.48
2022-07-29T02:04:30.394Z,23.75
2022-07-29T02:07:02.830Z,23.90
2022-07-29T02:09:32.716Z,23.73
2022-07-29T02:12:02.239Z,24.00
2022-07-29T02:14:35.121Z,23.75
2022-07-29T02:17:03.440Z,24.67
2022-07-29T02:19:33.334Z,24.13
2022-07-29T02:22:01.582Z,23.30
2022-07-29T02:24:30.767Z,23.55
2022-07-29T02:27:00.298Z,23.33
2022-07-29T02:29:29.785Z,24.10
2022-07-29T02:31:59.833Z,23.08
2022-07-29T02:34:28.109Z,24.35
2022-07-29T02:36:56.884Z,24.35
2022-07-29T02:39:25.575Z,24.73
2022-07-29T02:41:56.775Z,25.17
2022-07-29T02:44:31.266Z,25.40
2022-07-29T02:47:22.324Z,24.48
2022-07-29T02:50:01.217Z,26.10
2022-07-29T02:52:51.736Z,25.95
2022-07-29T02:55:33.100Z,26.33
2022-07-29T02:58:04.570Z,26.17
2022-07-29T03:00:35.307Z,27.25
2022-07-29T03:03:08.712Z,26.10
2022-07-29T03:05:36.406Z,27.30
2022-07-29T03:08:07.754Z,27.67
2022-07-29T03:10:35.780Z,27.13
2022-07-29T03:13:03.066Z,25.92
2022-07-29T03:15:30.750Z,25.60
2022-07-29T03:17:59.116Z,26.60
2022-07-29T03:20:27.446Z,27.10
2022-07-29T03:22:54.464Z,26.35
2022-07-29T03:25:22.028Z,26.13
2022-07-29T03:27:49.354Z,26.50
2022-07-29T03:30:18.314Z,26.67
2022-07-29T03:32:52.118Z,27.70
2022-07-29T03:35:20.663Z,27.10
2022-07-29T03:37:47.667Z,26.40
2022-07-29T03:40:28.715Z,26.23
2022-07-29T03:42:56.957Z,26.58
2022-07-29T03:45:25.159Z,26.88
2022-07-29T03:48:00.675Z,27.45
2022-07-29T03:50:31.208Z,26.48
2022-07-29T03:52:59.072Z,27.42
2022-07-29T03:55:27.716Z,27.30
2022-07-29T03:57:56.831Z,27.08
2022-07-29T04:00:26.629Z,26.27
2022-07-29T04:02:53.860Z,26.80
2022-07-29T04:05:21.004Z,26.33
2022-07-29T04:07:48.768Z,26.10
2022-07-29T04:10:16.911Z,27.30
2022-07-29T04:12:44.566Z,26.42
2022-07-29T04:15:12.536Z,27.92
2022-07-29T04:17:39.787Z,25.20
2022-07-29T04:20:07.264Z,25.98
2022-07-29T04:22:34.312Z,25.55
2022-07-29T04:25:04.002Z,24.80
2022-07-29T04:27:31.407Z,25.27
2022-07-29T04:29:58.715Z,24.92
2022-07-29T04:32:26.247Z,24.10
2022-07-29T04:34:53.738Z,25.00
2022-07-29T04:37:20.720Z,24.38
2022-07-29T04:39:47.735Z,24.42
2022-07-29T04:42:14.789Z,24.77
2022-07-29T04:44:44.349Z,23.33
2022-07-29T04:47:12.648Z,23.13
2022-07-29T04:49:40.211Z,22.90
2022-07-29T04:52:07.930Z,23.70
2022-07-29T04:54:35.052Z,23.98
2022-07-29T04:57:02.033Z,23.25
2022-07-29T04:59:29.054Z,23.15
2022-07-29T05:01:56.181Z,22.65
2022-07-29T05:04:24.111Z,22.90
2022-07-29T05:06:51.320Z,23.08
2022-07-29T05:09:18.361Z,22.30
2022-07-29T05:11:45.397Z,21.80
2022-07-29T05:14:12.405Z,23.08
2022-07-29T05:16:41.198Z,22.48
2022-07-29T05:19:13.655Z,22.13
2022-07-29T05:21:41.347Z,22.05
2022-07-29T05:24:09.042Z,21.95
2022-07-29T05:26:36.028Z,22.13
2022-07-29T05:29:03.153Z,21.55
2022-07-29T05:31:30.205Z,22.17
2022-07-29T05:33:57.298Z,22.83
2022-07-29T05:36:24.351Z,22.25
2022-07-29T05:38:53.185Z,22.73
2022-07-29T05:41:20.647Z,22.58
2022-07-29T05:43:47.889Z,23.40
2022-07-29T05:46:17.828Z,23.30
2022-07-29T05:48:45.021Z,24.38
2022-07-29T05:51:12.177Z,25.80
2022-07-29T05:53:39.233Z,22.98
2022-07-29T05:56:06.944Z,24.48
2022-07-29T05:58:34.043Z,24.83
2022-07-29T06:01:01.783Z,24.52
2022-07-29T06:03:29.335Z,24.85
2022-07-29T06:05:57.327Z,25.38
2022-07-29T06:08:24.700Z,26.10
2022-07-29T06:10:51.698Z,25.60
2022-07-29T06:13:18.754Z,27.63
2022-07-29T06:15:45.966Z,25.85
2022-07-29T06:18:14.513Z,25.63
2022-07-29T06:20:42.027Z,25.17
2022-07-29T06:23:09.095Z,24.95
2022-07-29T06:25:37.776Z,25.10
2022-07-29T06:28:05.145Z,24.20
2022-07-29T06:30:32.321Z,25.02
2022-07-29T06:32:59.508Z,24.55
2022-07-29T06:35:41.714Z,24.50
2022-07-29T06:38:31.415Z,24.80
2022-07-29T06:41:07.094Z,24.67
2022-07-29T06:43:36.291Z,24.70
2022-07-29T06:46:20.795Z,24.73
2022-07-29T06:48:51.419Z,24.35
2022-07-29T06:51:22.967Z,26.77
2022-07-29T06:53:59.564Z,23.52
2022-07-29T06:56:38.582Z,24.00
2022-07-29T06:59:10.537Z,23.83
2022-07-29T07:01:44.789Z,24.17
2022-07-29T07:04:14.912Z,24.17
2022-07-29T07:09:39.936Z,23.92
2022-07-29T07:12:08.984Z,24.33
2022-07-29T07:14:36.082Z,24.63
2022-07-29T07:17:04.977Z,24.30
2022-07-29T07:19:32.208Z,24.83
2022-07-29T07:22:01.919Z,24.52
2022-07-29T07:24:34.182Z,25.02
2022-07-29T07:27:01.389Z,25.90
2022-07-29T07:29:28.428Z,25.15
2022-07-29T07:32:00.653Z,24.50
2022-07-29T07:34:31.131Z,24.33
2022-07-29T07:37:00.600Z,23.50
2022-07-29T07:39:30.326Z,24.13
2022-07-29T07:41:58.188Z,24.17
2022-07-29T07:44:29.362Z,23.65
2022-07-29T07:47:08.545Z,24.95
2022-07-29T07:49:38.269Z,25.88
2022-07-29T07:52:07.563Z,25.95
2022-07-29T07:54:36.648Z,24.27
2022-07-29T07:57:05.533Z,25.23
2022-07-29T07:59:36.251Z,24.15
2022-07-29T08:02:06.804Z,24.70
2022-07-29T08:04:34.577Z,23.63
2022-07-29T08:07:01.812Z,23.83
2022-07-29T08:09:30.757Z,24.42
2022-07-29T08:12:00.429Z,24.63
2022-07-29T08:14:27.445Z,24.42
2022-07-29T08:16:54.972Z,23.80
2022-07-29T08:19:22.127Z,23.65
2022-07-29T08:21:51.695Z,23.85
2022-07-29T08:24:37.333Z,22.67
2022-07-29T08:27:12.857Z,22.75
2022-07-29T08:29:51.635Z,23.73
2022-07-29T08:32:36.884Z,22.80
2022-07-29T08:35:06.087Z,22.73
2022-07-29T08:37:33.132Z,22.33
2022-07-29T08:40:00.144Z,22.58
2022-07-29T08:42:27.320Z,21.65
2022-07-29T08:44:55.719Z,22.67
2022-07-29T08:47:25.142Z,22.63
2022-07-29T08:49:52.257Z,22.08
2022-07-29T08:52:21.168Z,21.95
2022-07-29T08:54:50.769Z,21.35
2022-07-29T08:57:20.573Z,21.55
2022-07-29T08:59:55.370Z,21.30
2022-07-29T09:02:23.739Z,21.83
2022-07-29T09:04:51.135Z,22.10
2022-07-29T09:07:19.468Z,21.55
2022-07-29T09:09:46.834Z,21.92
2022-07-29T09:12:29.268Z,21.55
2022-07-29T09:15:02.123Z,20.65
2022-07-29T09:17:50.226Z,21.40
2022-07-29T09:20:23.419Z,20.85
2022-07-29T09:22:53.787Z,20.55
2022-07-29T09:25:38.101Z,20.77
2022-07-29T09:28:13.017Z,20.52
2022-07-29T09:31:03.962Z,20.65
2022-07-29T09:33:41.497Z,20.40
2022-07-29T09:36:10.593Z,20.88
2022-07-29T09:38:38.476Z,21.25
2022-07-29T09:41:07.070Z,20.80
2022-07-29T09:43:35.110Z,21.02
2022-07-29T09:46:15.151Z,20.65
2022-07-29T09:48:42.430Z,21.25
2022-07-29T09:51:26.862Z,21.25
2022-07-29T09:53:55.846Z,20.27
2022-07-29T09:56:42.873Z,20.60
2022-07-29T09:59:12.258Z,20.80
2022-07-29T10:01:39.505Z,19.92
2022-07-29T10:04:06.907Z,20.30
2022-07-29T10:06:34.167Z,19.88
2022-07-29T10:09:12.268Z,20.33
2022-07-29T10:11:56.780Z,19.50
2022-07-29T10:14:24.192Z,20.25
2022-07-29T10:16:51.409Z,20.27
2022-07-29T10:19:18.796Z,19.83
2022-07-29T10:21:46.423Z,20.42
2022-07-29T10:24:15.539Z,20.48
2022-07-29T10:26:43.824Z,19.63
2022-07-29T10:29:11.118Z,20.58
2022-07-29T10:32:11.232Z,20.05
2022-07-29T10:35:26.457Z,19.60
2022-07-29T10:38:29.247Z,20.52
2022-07-29T10:41:44.252Z,20.85
2022-07-29T10:44:24.033Z,21.08
2022-07-29T10:46:52.918Z,20.88
2022-07-29T10:49:28.088Z,21.38
2022-07-29T10:52:07.088Z,21.77
2022-07-29T10:54:37.198Z,21.27
2022-07-29T10:57:25.662Z,21.75
2022-07-29T11:00:35.448Z,21.48
2022-07-29T11:03:04.603Z,23.27
2022-07-29T11:05:55.733Z,24.08
2022-07-29T11:08:29.216Z,22.40
2022-07-29T11:11:22.444Z,22.67
2022-07-29T11:13:57.245Z,23.08
2022-07-29T11:16:25.121Z,23.67
2022-07-29T11:19:15.014Z,24.20
2022-07-29T11:21:54.854Z,24.05
2022-07-29T11:24:33.369Z,25.35
2022-07-29T11:27:09.305Z,24.60
2022-07-29T11:32:18.430Z,24.25
2022-07-29T11:35:17.732Z,24.48
2022-07-29T11:37:52.179Z,25.10
2022-07-29T11:40:34.491Z,24.45
2022-07-29T11:43:03.070Z,24.70
2022-07-29T11:45:48.239Z,23.65
2022-07-29T11:48:29.687Z,23.60
2022-07-29T11:51:00.096Z,23.90
2022-07-29T11:53:28.986Z,25.40
2022-07-29T11:56:00.725Z,24.33
2022-07-29T11:58:29.564Z,23.48
2022-07-29T12:00:57.906Z,35.30
2022-07-29T12:03:32.989Z,34.42
2022-07-29T12:06:03.617Z,30.83
2022-07-29T12:08:31.347Z,33.55
2022-07-29T12:10:58.436Z,28.30
2022-07-29T12:13:37.485Z,30.45
2022-07-29T12:16:05.460Z,27.77
2022-07-29T12:18:32.772Z,28.52
2022-07-29T12:21:04.922Z,28.95
2022-07-29T12:23:34.859Z,27.92
2022-07-29T12:26:07.705Z,27.08
2022-07-29T12:28:39.786Z,26.90
2022-07-29T12:31:08.191Z,27.40
2022-07-29T12:33:36.195Z,26.85
2022-07-29T12:36:10.441Z,25.20
2022-07-29T12:38:38.114Z,27.98
2022-07-29T12:41:05.353Z,25.40
2022-07-29T12:43:32.973Z,25.52
2022-07-29T12:46:14.597Z,27.05
2022-07-29T12:48:43.433Z,26.35
2022-07-29T12:51:12.766Z,27.30
2022-07-29T12:53:40.562Z,26.83
2022-07-29T12:56:41.384Z,26.88
2022-07-29T12:59:19.380Z,26.40
2022-07-29T13:01:49.583Z,25.45
2022-07-29T13:04:26.570Z,25.55
2022-07-29T13:07:01.459Z,25.30
2022-07-29T13:09:39.270Z,24.75
2022-07-29T13:12:11.399Z,26.52
2022-07-29T13:14:43.765Z,24.35
2022-07-29T13:17:24.069Z,25.00
2022-07-29T13:19:53.188Z,28.00
2022-07-29T13:22:25.775Z,25.83
2022-07-29T13:24:55.827Z,24.38
2022-07-29T13:27:27.040Z,23.45
2022-07-29T13:29:57.572Z,23.85
2022-07-29T13:32:28.321Z,24.23
2022-07-29T13:35:04.958Z,24.05
2022-07-29T13:37:35.300Z,24.02
2022-07-29T13:40:04.580Z,24.33
2022-07-29T13:42:33.051Z,23.92
2022-07-29T13:45:00.961Z,23.48
2022-07-29T13:47:32.444Z,23.98
2022-07-29T13:50:01.899Z,23.98
2022-07-29T13:52:29.558Z,23.55
2022-07-29T13:54:56.786Z,24.00
2022-07-29T13:57:24.024Z,24.35
2022-07-29T13:59:54.375Z,23.33
2022-07-29T14:02:25.692Z,24.60
2022-07-29T14:04:56.600Z,23.67
2022-07-29T14:07:23.872Z,23.90
2022-07-29T14:09:51.313Z,23.65
2022-07-29T14:12:18.741Z,24.58
2022-07-29T14:14:47.324Z,24.08
2022-07-29T14:17:16.761Z,24.45
2022-07-29T14:19:44.027Z,22.55
2022-07-29T14:22:11.370Z,23.50
2022-07-29T14:24:39.478Z,24.05
2022-07-29T14:27:07.803Z,23.38
2022-07-29T14:29:38.105Z,24.20
2022-07-29T14:32:11.271Z,23.30
2022-07-29T14:34:39.748Z,23.75
2022-07-29T14:37:07.699Z,22.90
2022-07-29T14:39:42.552Z,23.75
2022-07-29T14:42:12.454Z,22.25
2022-07-29T14:44:40.300Z,21.80
2022-07-29T14:47:08.258Z,22.38
2022-07-29T14:49:36.246Z,22.38
2022-07-29T14:52:03.757Z,21.85
2022-07-29T14:54:30.788Z,21.83
2022-07-29T14:56:58.726Z,21.92
2022-07-29T14:59:27.290Z,21.35
2022-07-29T15:01:54.614Z,23.95
2022-07-29T15:04:21.737Z,22.45
2022-07-29T15:06:49.054Z,22.40
2022-07-29T15:09:16.136Z,22.67
2022-07-29T15:11:43.190Z,22.50
2022-07-29T15:14:10.285Z,23.77
2022-07-29T15:16:38.526Z,23.02
2022-07-29T15:19:05.820Z,24.52
2022-07-29T15:21:33.249Z,22.52
2022-07-29T15:24:00.238Z,24.25
2022-07-29T15:26:27.441Z,24.60
2022-07-29T15:28:56.627Z,23.75
2022-07-29T15:31:23.650Z,24.13
2022-07-29T15:33:54.386Z,24.17
2022-07-29T15:36:51.056Z,24.27
2022-07-29T15:39:11.374Z,24.58
2022-07-29T15:41:38.624Z,24.48
2022-07-29T15:44:05.642Z,24.48
2022-07-29T15:46:50.977Z,24.90
2022-07-29T15:49:18.113Z,25.55
2022-07-29T15:51:45.451Z,25.42
2022-07-29T15:54:13.453Z,25.88
2022-07-29T15:56:40.906Z,26.88
2022-07-29T15:59:07.973Z,26.25
2022-07-29T16:01:34.996Z,27.05
2022-07-29T16:04:02.976Z,26.60
2022-07-29T16:06:30.121Z,26.42
2022-07-29T16:08:58.908Z,26.15
2022-07-29T16:11:26.224Z,26.90
2022-07-29T16:13:53.259Z,26.98
2022-07-29T16:16:20.435Z,27.15
2022-07-29T16:18:47.738Z,26.10
2022-07-29T16:21:14.985Z,26.02
2022-07-29T16:23:41.992Z,25.25
2022-07-29T16:26:09.060Z,25.60
2022-07-29T16:28:36.094Z,25.90
2022-07-29T16:31:03.678Z,25.63
2022-07-29T16:33:53.555Z,25.42
2022-07-29T16:36:19.127Z,25.35
2022-07-29T16:38:47.612Z,24.45
2022-07-29T16:41:14.872Z,25.02
2022-07-29T16:43:41.972Z,24.35
2022-07-29T16:46:12.503Z,25.65
2022-07-29T16:48:45.868Z,26.50
2022-07-29T16:51:14.260Z,26.90
2022-07-29T16:53:41.936Z,25.75
2022-07-29T16:56:12.958Z,24.65
2022-07-29T16:58:43.830Z,25.42
2022-07-29T17:01:11.900Z,25.42
2022-07-29T17:04:00.401Z,25.55
2022-07-29T17:06:29.545Z,24.80
2022-07-29T17:08:56.837Z,24.02
2022-07-29T17:11:52.580Z,23.50
2022-07-29T17:14:11.828Z,23.77
2022-07-29T17:16:38.870Z,22.77
2022-07-29T17:19:05.956Z,22.48
2022-07-29T17:21:33.030Z,22.40
2022-07-29T17:24:00.074Z,21.75
2022-07-29T17:26:30.194Z,21.63
2022-07-29T17:28:57.208Z,21.85
2022-07-29T17:31:24.269Z,21.58
2022-07-29T17:33:51.388Z,21.95
2022-07-29T17:36:24.169Z,22.50
2022-07-29T17:38:53.074Z,22.45
2022-07-29T17:41:21.711Z,22.30
2022-07-29T17:43:49.704Z,22.80
2022-07-29T17:46:17.802Z,24.08
2022-07-29T17:48:45.124Z,24.00
2022-07-29T17:51:12.583Z,24.30
2022-07-29T17:53:39.904Z,24.58
2022-07-29T17:56:07.246Z,24.27
2022-07-29T17:58:34.863Z,26.90
2022-07-29T18:01:02.040Z,28.52
2022-07-29T18:03:29.055Z,25.35
2022-07-29T18:05:56.215Z,25.40
2022-07-29T18:08:23.472Z,26.25
2022-07-29T18:10:51.123Z,25.48
2022-07-29T18:13:18.404Z,26.60
2022-07-29T18:15:46.213Z,25.45
2022-07-29T18:18:14.388Z,26.35
2022-07-29T18:20:42.894Z,26.55
2022-07-29T18:23:10.475Z,24.65
2022-07-29T18:25:37.953Z,25.63
2022-07-29T18:28:05.561Z,26.58
2022-07-29T18:30:37.963Z,26.38
2022-07-29T18:33:20.677Z,26.33
2022-07-29T18:35:50.820Z,25.45
2022-07-29T18:38:18.270Z,26.08
2022-07-29T18:40:46.158Z,24.67
2022-07-29T18:43:13.788Z,24.48
2022-07-29T18:45:42.558Z,23.08
2022-07-29T18:48:11.928Z,21.33
2022-07-29T18:50:40.567Z,21.92
2022-07-29T18:53:07.701Z,22.00
2022-07-29T18:55:34.839Z,21.80
2022-07-29T18:58:01.894Z,23.45
2022-07-29T19:00:28.964Z,23.05
2022-07-29T19:02:56.877Z,23.70
2022-07-29T19:05:24.824Z,22.48
2022-07-29T19:07:51.891Z,23.05
2022-07-29T19:10:18.942Z,23.30
2022-07-29T19:12:46.064Z,23.48
2022-07-29T19:15:13.107Z,22.55
2022-07-29T19:17:48.139Z,23.15
2022-07-29T19:20:15.704Z,22.52
2022-07-29T19:22:42.822Z,23.15
2022-07-29T19:25:10.238Z,22.70
2022-07-29T19:27:37.331Z,23.20
2022-07-29T19:30:06.576Z,22.80
2022-07-29T19:32:33.781Z,22.13
2022-07-29T19:35:19.571Z,22.67
2022-07-29T19:37:46.588Z,24.80
2022-07-29T19:40:13.812Z,24.15
2022-07-29T19:42:40.821Z,23.45
2022-07-29T19:45:08.417Z,24.00
2022-07-29T19:47:35.678Z,25.58
2022-07-29T19:50:02.979Z,24.77
2022-07-29T19:52:29.983Z,25.08
2022-07-29T19:54:57.184Z,25.48
2022-07-29T19:57:24.287Z,25.77
2022-07-29T19:59:51.304Z,26.92
2022-07-29T20:02:18.490Z,27.02
2022-07-29T20:04:45.662Z,27.48
2022-07-29T20:07:13.687Z,29.10
2022-07-29T20:09:41.384Z,32.08
2022-07-29T20:12:09.566Z,28.17
2022-07-29T20:14:37.218Z,28.88
2022-07-29T20:17:05.034Z,29.10
2022-07-29T20:19:33.015Z,29.25
2022-07-29T20:22:00.287Z,27.42
2022-07-29T20:24:27.482Z,28.23
2022-07-29T20:26:54.570Z,28.58
2022-07-29T20:29:21.790Z,30.85
2022-07-29T20:31:52.948Z,27.98
2022-07-29T20:34:23.716Z,27.77
2022-07-29T20:36:50.740Z,27.27
2022-07-29T20:39:17.871Z,30.17
2022-07-29T20:41:44.948Z,28.02
2022-07-29T20:44:12.044Z,28.98
2022-07-29T20:46:39.573Z,29.95
2022-07-29T20:49:06.720Z,30.63
2022-07-29T20:51:43.418Z,29.55
2022-07-29T20:54:11.575Z,31.58
2022-07-29T20:56:38.899Z,33.60
2022-07-29T20:59:05.872Z,32.03
2022-07-29T21:01:32.971Z,30.55
2022-07-29T21:04:01.789Z,30.85
2022-07-29T21:06:29.172Z,29.98
2022-07-29T21:08:58.047Z,29.85
2022-07-29T21:11:43.651Z,26.80
2022-07-29T21:14:38.182Z,25.02
2022-07-29T21:17:07.286Z,22.70
2022-07-29T21:19:35.369Z,22.77
2022-07-29T21:22:02.466Z,21.50
2022-07-29T21:24:29.765Z,21.73
2022-07-29T21:27:21.551Z,21.02
2022-07-29T21:29:48.893Z,20.88
2022-07-29T21:32:27.646Z,21.35
2022-07-29T21:34:58.018Z,24.17
2022-07-29T21:37:25.307Z,24.42
2022-07-29T21:39:52.310Z,24.15
2022-07-29T21:42:19.441Z,23.17
2022-07-29T21:44:46.452Z,23.88
2022-07-29T21:47:13.645Z,24.70
2022-07-29T21:49:40.915Z,23.58
2022-07-29T21:52:08.967Z,24.05
2022-07-29T21:54:36.320Z,25.40
2022-07-29T21:57:04.006Z,26.45
2022-07-29T21:59:31.988Z,26.55
2022-07-29T22:02:01.587Z,27.65
2022-07-29T22:04:30.063Z,28.25
2022-07-29T22:06:58.195Z,28.50
2022-07-29T22:09:25.913Z,29.63
2022-07-29T22:11:53.068Z,29.35
2022-07-29T22:14:20.637Z,29.75
2022-07-29T22:16:48.271Z,36.42
2022-07-29T22:19:15.556Z,28.48
2022-07-29T22:21:42.676Z,32.22
2022-07-29T22:24:12.967Z,31.25
2022-07-29T22:26:40.031Z,29.90
2022-07-29T22:29:07.140Z,28.60
2022-07-29T22:31:34.445Z,27.70
2022-07-29T22:34:01.430Z,28.20
2022-07-29T22:36:28.462Z,27.58
2022-07-29T22:38:55.548Z,28.55
2022-07-29T22:41:22.562Z,26.88
2022-07-29T22:43:49.644Z,27.35
2022-07-29T22:46:16.812Z,27.17
2022-07-29T22:48:44.057Z,28.45
2022-07-29T22:51:11.268Z,28.13
2022-07-29T22:53:38.427Z,29.17
2022-07-29T22:56:05.859Z,28.92
2022-07-29T22:58:32.899Z,31.52
2022-07-29T23:00:59.888Z,30.85
2022-07-29T23:03:27.033Z,32.80
2022-07-29T23:05:54.088Z,31.58
2022-07-29T23:08:21.229Z,33.38
2022-07-29T23:10:48.330Z,31.48
2022-07-29T23:13:15.525Z,34.55
2022-07-29T23:15:42.554Z,38.15
2022-07-29T23:18:09.643Z,37.60
2022-07-29T23:20:36.908Z,33.92
2022-07-29T23:23:04.222Z,35.60
2022-07-29T23:25:31.373Z,37.22
2022-07-29T23:27:58.369Z,39.83
2022-07-29T23:30:25.668Z,38.88
2022-07-29T23:32:53.663Z,35.67
2022-07-29T23:35:21.040Z,36.88
2022-07-29T23:37:48.388Z,38.35
2022-07-29T23:40:15.808Z,39.30
2022-07-29T23:42:43.160Z,37.70
2022-07-29T23:45:14.163Z,41.13
2022-07-29T23:47:41.785Z,40.97
2022-07-29T23:50:12.158Z,40.03
2022-07-29T23:52:40.530Z,43.20
2022-07-29T23:55:37.636Z,41.35
2022-07-29T23:57:55.811Z,39.08
